createdAt,value
2022-11-16T00:00:23.039Z,10.29
2022-11-16T00:02:49.276Z,10.29
2022-11-16T00:05:15.519Z,10.28
2022-11-16T00:07:41.764Z,10.24
2022-11-16T00:10:08.000Z,10.08
2022-11-16T00:12:34.279Z,9.89
2022-11-16T00:15:00.514Z,9.90
2022-11-16T00:17:26.743Z,9.85
2022-11-16T00:19:52.985Z,9.69
2022-11-16T00:22:19.237Z,9.41
2022-11-16T00:24:45.477Z,9.39
2022-11-16T00:27:11.716Z,9.33
2022-11-16T00:29:37.966Z,9.38
2022-11-16T00:32:04.207Z,9.32
2022-11-16T00:34:30.447Z,9.45
2022-11-16T00:36:56.706Z,9.54
2022-11-16T00:39:22.930Z,9.54
2022-11-16T00:41:49.158Z,9.57
2022-11-16T00:44:15.400Z,9.67
2022-11-16T00:46:41.661Z,9.72
2022-11-16T00:49:07.889Z,9.85
2022-11-16T00:51:34.124Z,9.92
2022-11-16T00:54:00.350Z,10.07
2022-11-16T00:56:26.594Z,9.95
2022-11-16T00:58:52.832Z,10.05
2022-11-16T01:01:19.093Z,10.07
2022-11-16T01:03:45.421Z,10.07
2022-11-16T01:06:11.653Z,10.03
2022-11-16T01:08:38.003Z,10.05
2022-11-16T01:11:04.235Z,9.95
2022-11-16T01:13:30.468Z,9.91
2022-11-16T01:15:56.685Z,9.78
2022-11-16T01:18:22.913Z,9.77
2022-11-16T01:20:49.153Z,9.59
2022-11-16T01:23:15.390Z,9.47
2022-11-16T01:25:41.619Z,9.64
2022-11-16T01:28:07.832Z,9.54
2022-11-16T01:30:34.076Z,9.50
2022-11-16T01:33:00.343Z,9.55
2022-11-16T01:35:26.578Z,9.55
2022-11-16T01:37:52.807Z,9.53
2022-11-16T01:40:19.038Z,9.54
2022-11-16T01:42:45.270Z,9.39
2022-11-16T01:45:11.491Z,9.39
2022-11-16T01:47:37.738Z,9.26
2022-11-16T01:50:03.962Z,9.14
2022-11-16T01:52:30.195Z,9.06
2022-11-16T01:54:56.436Z,9.07
2022-11-16T01:57:22.678Z,9.02
2022-11-16T01:59:48.915Z,9.05
2022-11-16T02:02:15.154Z,9.05
2022-11-16T02:04:41.428Z,9.08
2022-11-16T02:07:07.686Z,9.18
2022-11-16T02:09:33.962Z,9.03
2022-11-16T02:12:00.195Z,9.06
2022-11-16T02:14:26.454Z,8.98
2022-11-16T02:16:52.681Z,9.08
2022-11-16T02:19:18.910Z,9.02
2022-11-16T02:21:45.146Z,8.92
2022-11-16T02:24:11.390Z,8.90
2022-11-16T02:26:38.747Z,8.89
2022-11-16T02:29:04.965Z,8.77
2022-11-16T02:31:31.203Z,8.91
2022-11-16T02:33:57.448Z,8.95
2022-11-16T02:36:23.713Z,8.93
2022-11-16T02:38:49.942Z,8.86
2022-11-16T02:41:16.180Z,8.94
2022-11-16T02:43:42.412Z,8.92
2022-11-16T02:46:08.654Z,8.98
2022-11-16T02:48:35.058Z,8.95
2022-11-16T02:51:01.521Z,8.94
2022-11-16T02:53:27.760Z,8.88
2022-11-16T02:55:53.995Z,8.81
2022-11-16T02:58:20.240Z,8.86
2022-11-16T03:00:46.532Z,8.85
2022-11-16T03:03:12.787Z,8.78
2022-11-16T03:05:39.030Z,8.88
2022-11-16T03:08:05.249Z,8.91
2022-11-16T03:10:31.495Z,8.93
2022-11-16T03:12:57.747Z,8.88
2022-11-16T03:15:24.023Z,9.05
2022-11-16T03:17:50.278Z,8.89
2022-11-16T03:20:16.563Z,8.68
2022-11-16T03:22:42.810Z,8.83
2022-11-16T03:25:09.064Z,8.81
2022-11-16T03:27:35.306Z,8.71
2022-11-16T03:30:01.568Z,8.72
2022-11-16T03:32:27.808Z,8.83
2022-11-16T03:34:54.048Z,8.75
2022-11-16T03:37:20.282Z,8.71
2022-11-16T03:39:46.505Z,8.61
2022-11-16T03:42:12.760Z,8.44
2022-11-16T03:44:39.009Z,8.23
2022-11-16T03:47:05.252Z,8.03
2022-11-16T03:49:31.479Z,8.10
2022-11-16T03:51:57.736Z,8.30
2022-11-16T03:54:23.984Z,8.21
2022-11-16T03:56:50.193Z,8.25
2022-11-16T03:59:16.435Z,8.25
2022-11-16T04:01:44.855Z,8.27
2022-11-16T04:04:11.333Z,8.16
2022-11-16T04:06:37.570Z,8.10
2022-11-16T04:09:03.800Z,8.22
2022-11-16T04:11:30.037Z,8.28
2022-11-16T04:14:16.229Z,8.20
2022-11-16T04:16:42.503Z,8.26
2022-11-16T04:19:08.774Z,8.22
2022-11-16T04:21:34.993Z,8.21
2022-11-16T04:24:01.235Z,8.30
2022-11-16T04:26:27.457Z,8.25
2022-11-16T04:28:53.699Z,7.99
2022-11-16T04:31:19.934Z,8.09
2022-11-16T04:33:46.205Z,8.14
2022-11-16T04:36:15.405Z,8.04
2022-11-16T04:38:45.622Z,8.05
2022-11-16T04:41:11.848Z,7.91
2022-11-16T04:43:38.086Z,7.73
2022-11-16T04:46:04.355Z,7.75
2022-11-16T04:48:30.621Z,7.86
2022-11-16T04:50:56.849Z,7.90
2022-11-16T04:53:23.133Z,8.02
2022-11-16T04:55:49.402Z,7.93
2022-11-16T04:58:15.634Z,7.95
2022-11-16T05:00:42.045Z,7.95
2022-11-16T05:03:08.307Z,7.71
2022-11-16T05:05:34.547Z,7.47
2022-11-16T05:08:00.784Z,7.34
2022-11-16T05:10:27.035Z,7.45
2022-11-16T05:12:53.335Z,7.49
2022-11-16T05:15:19.578Z,7.60
2022-11-16T05:17:45.820Z,7.61
2022-11-16T05:20:12.064Z,7.51
2022-11-16T05:22:38.374Z,7.24
2022-11-16T05:25:04.594Z,7.22
2022-11-16T05:27:30.831Z,7.29
2022-11-16T05:29:57.115Z,7.28
2022-11-16T05:32:23.363Z,7.27
2022-11-16T05:34:49.601Z,7.25
2022-11-16T05:37:15.849Z,7.37
2022-11-16T05:39:42.083Z,7.42
2022-11-16T05:42:08.392Z,7.48
2022-11-16T05:44:34.618Z,7.37
2022-11-16T05:47:00.878Z,7.46
2022-11-16T05:49:27.126Z,7.40
2022-11-16T05:51:53.362Z,7.37
2022-11-16T05:54:19.608Z,7.26
2022-11-16T05:56:45.840Z,7.21
2022-11-16T05:59:16.320Z,7.23
2022-11-16T06:01:42.882Z,7.20
2022-11-16T06:04:09.141Z,7.24
2022-11-16T06:06:35.377Z,7.26
2022-11-16T06:09:01.610Z,7.11
2022-11-16T06:11:32.711Z,7.01
2022-11-16T06:14:01.658Z,6.88
2022-11-16T06:16:27.917Z,6.62
2022-11-16T06:18:54.170Z,6.69
2022-11-16T06:21:20.402Z,6.74
2022-11-16T06:23:46.635Z,6.85
2022-11-16T06:26:12.865Z,6.85
2022-11-16T06:28:39.159Z,6.93
2022-11-16T06:31:05.549Z,6.89
2022-11-16T06:33:33.797Z,6.86
2022-11-16T06:36:00.270Z,6.78
2022-11-16T06:38:26.500Z,6.31
2022-11-16T06:40:52.939Z,6.49
2022-11-16T06:43:19.356Z,6.60
2022-11-16T06:45:45.594Z,6.19
2022-11-16T06:48:11.989Z,6.10
2022-11-16T06:50:38.239Z,6.46
2022-11-16T06:53:04.464Z,6.43
2022-11-16T06:55:30.676Z,6.46
2022-11-16T06:57:56.916Z,6.62
2022-11-16T07:00:23.156Z,6.72
2022-11-16T07:02:49.407Z,6.69
2022-11-16T07:05:15.637Z,6.74
2022-11-16T07:07:41.914Z,6.83
2022-11-16T07:10:08.270Z,6.85
2022-11-16T07:12:34.561Z,6.85
2022-11-16T07:15:00.806Z,6.83
2022-11-16T07:17:27.054Z,6.80
2022-11-16T07:19:53.280Z,6.67
2022-11-16T07:22:19.498Z,6.74
2022-11-16T07:24:47.087Z,6.42
2022-11-16T07:27:13.305Z,6.35
2022-11-16T07:29:39.614Z,6.57
2022-11-16T07:32:05.830Z,6.51
2022-11-16T07:34:32.054Z,6.69
2022-11-16T07:36:58.318Z,6.66
2022-11-16T07:39:24.549Z,6.63
2022-11-16T07:41:50.797Z,6.67
2022-11-16T07:44:17.102Z,6.81
2022-11-16T07:46:47.834Z,6.77
2022-11-16T07:49:14.780Z,6.81
2022-11-16T07:51:41.010Z,6.74
2022-11-16T07:54:07.336Z,6.79
2022-11-16T07:56:33.593Z,6.88
2022-11-16T07:58:59.827Z,6.91
2022-11-16T08:01:26.108Z,7.01
2022-11-16T08:03:52.372Z,7.09
2022-11-16T08:06:18.777Z,7.02
2022-11-16T08:08:45.043Z,7.15
2022-11-16T08:11:11.275Z,7.17
2022-11-16T08:13:37.576Z,7.18
2022-11-16T08:16:03.818Z,7.15
2022-11-16T08:18:30.142Z,7.31
2022-11-16T08:20:56.470Z,7.26
2022-11-16T08:23:22.758Z,7.38
2022-11-16T08:25:49.005Z,7.51
2022-11-16T08:28:15.247Z,7.40
2022-11-16T08:30:45.585Z,7.60
2022-11-16T08:33:14.653Z,7.34
2022-11-16T08:35:40.890Z,7.67
2022-11-16T08:38:08.378Z,7.80
2022-11-16T08:40:34.680Z,7.89
2022-11-16T08:43:00.926Z,8.09
2022-11-16T08:45:27.174Z,8.13
2022-11-16T08:48:03.205Z,8.21
2022-11-16T08:50:31.391Z,8.36
2022-11-16T08:52:59.771Z,7.93
2022-11-16T08:55:26.025Z,8.25
2022-11-16T08:57:52.248Z,8.21
2022-11-16T09:03:03.509Z,8.28
2022-11-16T09:05:29.746Z,8.43
2022-11-16T09:24:29.657Z,8.88
2022-11-16T09:32:29.693Z,8.60
2022-11-16T09:43:22.722Z,9.12
2022-11-16T09:45:48.979Z,9.04
2022-11-16T09:48:15.216Z,8.74
2022-11-16T10:10:09.848Z,8.92
2022-11-16T10:12:36.300Z,9.08
2022-11-16T10:15:02.532Z,8.94
2022-11-16T10:17:28.879Z,9.31
2022-11-16T10:45:11.833Z,10.42
2022-11-16T10:47:38.060Z,10.49
2022-11-16T10:50:04.325Z,10.53
2022-11-16T10:52:30.546Z,10.58
2022-11-16T10:54:56.815Z,10.68
2022-11-16T10:57:23.085Z,10.75
2022-11-16T10:59:49.369Z,10.82
2022-11-16T11:02:15.589Z,10.35
2022-11-16T12:14:53.169Z,10.92
2022-11-16T12:17:19.399Z,10.95
2022-11-16T12:19:45.805Z,10.69
2022-11-16T12:22:12.061Z,10.94
2022-11-16T12:24:38.305Z,10.79
2022-11-16T12:27:04.542Z,10.87
2022-11-16T12:29:30.794Z,10.95
2022-11-16T12:31:57.028Z,10.75
2022-11-16T12:34:23.261Z,10.60
2022-11-16T12:36:49.520Z,10.42
2022-11-16T12:39:15.764Z,10.38
2022-11-16T12:41:42.000Z,10.40
2022-11-16T12:44:08.235Z,10.04
2022-11-16T12:46:34.479Z,10.15
2022-11-16T12:49:00.710Z,10.02
2022-11-16T12:51:31.652Z,10.10
2022-11-16T12:53:58.270Z,10.10
2022-11-16T12:56:24.513Z,10.08
2022-11-16T12:58:50.746Z,10.13
2022-11-16T13:01:17.007Z,10.07
2022-11-16T13:03:43.278Z,10.01
2022-11-16T13:06:09.496Z,10.15
2022-11-16T13:08:35.762Z,10.17
2022-11-16T13:11:02.009Z,10.05
2022-11-16T13:13:36.958Z,10.13
2022-11-16T13:16:03.574Z,9.90
2022-11-16T13:18:29.793Z,9.72
2022-11-16T13:20:56.023Z,9.48
2022-11-16T13:23:22.239Z,8.74
2022-11-16T13:25:48.456Z,8.11
2022-11-16T14:35:50.493Z,9.87
2022-11-16T14:38:16.714Z,9.78
2022-11-16T14:40:42.957Z,9.81
2022-11-16T15:05:26.525Z,9.43
2022-11-16T15:16:19.565Z,9.24
2022-11-16T15:18:45.802Z,9.28
2022-11-16T15:21:12.030Z,9.43
2022-11-16T15:23:38.457Z,9.51
2022-11-16T15:26:04.684Z,9.57
2022-11-16T15:28:33.724Z,9.52
2022-11-16T15:30:59.938Z,9.49
2022-11-16T15:36:11.264Z,9.69
2022-11-16T15:38:37.586Z,9.32
2022-11-16T15:41:03.910Z,9.44
2022-11-16T15:43:30.447Z,9.49
2022-11-16T15:45:56.925Z,9.57
2022-11-16T15:48:23.325Z,9.57
2022-11-16T15:50:49.701Z,9.65
2022-11-16T15:53:15.917Z,9.57
2022-11-16T15:55:42.385Z,9.48
2022-11-16T15:58:08.740Z,9.50
